Airfield :
LOGIN :

Register | Disclaimer

   EN    FR    IT 

 










Legend :    VFR   Marginal VFR   IFR   Intensive IFR   Very Intensive IFR
Visi :
Ceiling :
>= 8 km
>= 3000ft
5 to 8 km
1000 to 3000 ft
1500m to 5 km
500 to 1000 ft
800 to 1500m
200 to 500 ft
< 800m
< 200 ft
Symbols :   Thunderstorms  Fog  Heavy snow  Heavy precipitations  Wind > 20 kt
SIGMETs :     Misc.  Thunderstorms  Icing  Turbulence  Mountain Waves  Volcanic Ashes






- Airport Elevation : 26 ft
- IATA code : GLA


EGPF - Glasgow

CURRENT METAR :
  • 170220Z AUTO 22027G40KT 9000 -RA SCT016/// BKN021/// OVC035/// //////CB 05/04 Q0981 RERA

EXPIRED METARs :
  • 170150Z AUTO 22029KT 7000 -RA SCT019/// BKN025/// BKN035/// //////TCU 05/03 Q0981 RERA
  • 170120Z AUTO 22034G45KT 5000 -RA BKN022/// //////CB 05/03 Q0980
  • 170050Z AUTO 21030G40KT 9999 -RA SCT021/// BKN026/// BKN032/// //////TCU 05/03 Q0980
  • 170020Z AUTO 21032G49KT 9000 -RA BKN024/// OVC037/// //////CB 06/03 Q0979

TAF AMD TAF EGPF
Valid from the 17 at 01:00 until the 18 at 00:00 UTC


170149Z 1701/1724 22030G40KT 9999 SCT020
TEMPO 1701/1724 7000 SHRA BKN014CB
TEMPO 1701/1703 22038G52KT
PROB40
TEMPO 1701/1705 4000 +SHRA
BECMG 1703/1706 25015KT
TEMPO 1706/1724 26018G32KT
ATIS : +44 141 887 7449



MET'MAP, your aeronautical weather chart ! - Copyright ORBIFLY December 2007 - Disclaimer

ORBIFLY MET'MAP TEAM :

Programming & Development : Alexandra Zaïnal
Concept & original design : Baudouin d'Aumeries
Assistance for programming : Marc-Olivier Méhu
Technical & hardware support : Manuel Goepfert

Contact : metmap@orbifly.com




SOURCES & CREDITS :

   NOAA